Terminal Aerodrome Forecast
Issued by NWS Wichita, KS

Home | Current Version | Previous Version | Graphics & Text | Print | Product List | Glossary On
Versions: 1 2 3 4 5 6 7 8 9 10 11 12 13 14 15 16 17 18 19 20 21 22 23 24 25
000
FTUS43 KICT 230615 AAA
TAFICT
TAF AMD
KICT 230615Z 2306/2406 15017G22KT P6SM OVC017
     FM231300 15022G30KT P6SM OVC013
     FM231700 17022G30KT P6SM OVC025
     FM232000 18022G30KT P6SM BKN035=

USA.gov is the U.S. government's official web portal to all federal, state and local government web resources and services.